Friday, December 14, 2018, 12:24 PM EST
Back to Local

KFOK, The Gabreski Airport

Location: East Quogue, NY, United States Lat: 40.85
Local Time: 12:24 PM EST (17:24 GMT) Lon: -72.617
Time Zone: US/Eastern Elev: 65 ft

Show me the last for .
Show Decoded

2018-12-14 11:53 METAR KFOK 141653Z 11008KT 10SM BKN060 09/04 A3044 RMK AO2 SLP309 T00940039 =
2018-12-14 10:53 METAR KFOK 141553Z 14009KT 10SM CLR 09/03 A3049 RMK AO2 SLP326 T00940028 =
2018-12-14 09:53 METAR KFOK 141453Z 13007KT 10SM CLR 09/03 A3052 RMK AO2 SLP335 T00890028 51008 $
                 =
2018-12-14 09:08 METAR KFOK 141408Z 11006KT 10SM SCT023 08/03 A3052 RMK AO2 T00830028 $ =
2018-12-14 08:53 METAR KFOK 141353Z 14007KT 10SM BKN022 08/03 A3052 RMK AO2 SLP335 T00780028 $ =
2018-12-14 08:13 METAR KFOK 141313Z 14007KT 10SM BKN021 07/03 A3051 RMK AO2 T00720028 $ =
2018-12-14 07:53 METAR KFOK 141253Z 12006KT 10SM SCT021 06/02 A3051 RMK AO2 SLP330 T00610022 $ =
2018-12-14 07:37 METAR KFOK 141237Z 11005KT 10SM SCT021 06/02 A3050 RMK AO2 T00560022 $ =
2018-12-14 06:53 METAR KFOK 141153Z 10003KT 10SM BKN021 05/02 A3050 RMK AO2 SLP327 7////
                 T00500017 10061 20044 53001 $ =
2018-12-14 06:35 METAR KFOK 141135Z AUTO 11004KT 10SM BKN021 05/01 A3049 RMK AO2 T00500011 $ =
2018-12-14 05:53 METAR KFOK 141053Z AUTO 10005KT 10SM FEW023 05/01 A3049 RMK AO2 SLP325 T00500006
                 =
2018-12-14 05:48 METAR KFOK 141048Z AUTO 11004KT 10SM SCT023 05/01 A3049 RMK AO2 =
2018-12-14 04:53 METAR KFOK 140953Z AUTO 13006KT 10SM BKN022 06/01 A3049 RMK AO2 SLP326 T00560011
                 =
2018-12-14 03:53 METAR KFOK 140853Z AUTO 11005KT 10SM FEW020 05/01 A3050 RMK AO2 SLP330 T00500011
                 56005 =
2018-12-14 03:10 METAR KFOK 140810Z AUTO 10005KT 10SM SCT020 06/02 A3049 RMK AO2 T00560017 =
2018-12-14 03:02 METAR KFOK 140802Z AUTO 10006KT 10SM BKN020 06/02 A3050 RMK AO2 T00560017 =
2018-12-14 02:53 METAR KFOK 140753Z AUTO 11005KT 10SM SCT020 05/02 A3050 RMK AO2 SLP330 T00500017
                 =
2018-12-14 01:53 METAR KFOK 140653Z AUTO 10005KT 10SM CLR 05/01 A3051 RMK AO2 SLP333 T00500011 =
2018-12-14 00:53 METAR KFOK 140553Z AUTO 10004KT 10SM BKN042 06/02 A3052 RMK AO2 SLP335 T00560017
                 10061 20050 55000 =
2018-12-13 23:53 METAR KFOK 140453Z AUTO 11007KT 10SM OVC043 06/02 A3052 RMK AO2 SLP334 T00560017
                 400611022 =
2018-12-13 23:29 METAR KFOK 140429Z AUTO 10007KT 10SM SCT028 OVC043 06/02 A3051 RMK AO2 T00610017
                 =
2018-12-13 22:53 METAR KFOK 140353Z 10006KT 10SM BKN026 OVC030 06/02 A3051 RMK AO2 SLP333
                 T00610017 =
2018-12-13 21:53 METAR KFOK 140253Z 11007KT 10SM OVC018 06/02 A3052 RMK AO2 SLP335 T00560017
                 53008 =
2018-12-13 20:53 METAR KFOK 140153Z 10007KT 10SM OVC018 06/02 A3051 RMK AO2 SLP331 T00560017 =
2018-12-13 19:53 METAR KFOK 140053Z 11006KT 10SM OVC023 05/02 A3050 RMK AO2 SLP328 T00500017 =
2018-12-13 18:53 METAR KFOK 132353Z 10008G15KT 10SM OVC020 05/01 A3049 RMK AO2 SLP326 6////
                 T00500011 10050 20044 51006 =
2018-12-13 17:53 METAR KFOK 132253Z 09007G15KT 10SM OVC017 04/01 A3049 RMK AO2 SLP325 T00440011 =
2018-12-13 16:53 METAR KFOK 132153Z 12007KT 10SM OVC020 04/01 A3049 RMK AO2 SLP324 T00440011 =
2018-12-13 15:53 METAR KFOK 132053Z 10006KT 10SM OVC019 04/01 A3048 RMK AO2 RAEMM SLP320 P0000
                 60000 T00440011 51010 =
2018-12-13 15:51 METAR KFOK 132051Z 10004KT 10SM OVC019 04/01 A3048 RMK AO2 RAEMM P0000 =
2018-12-13 15:08 METAR KFOK 132008Z 04/00 A3046 RMK AO2 RAEMM P0000 T00440000 $ =
2018-12-13 14:53 METAR KFOK 131953Z 12010G15KT 10SM -RA BKN022 OVC029 04/00 A3046 RMK AO2
                 RAE1858B42 SLP316 P0000 T00440000 $ =
2018-12-13 14:39 METAR KFOK 131939Z 11007KT 10SM BKN024 BKN039 OVC048 05/00 A3046 RMK AO2 RAE1858
                 P0000 T00500000 $ =
2018-12-13 14:17 METAR KFOK 131917Z 11008KT 10SM FEW019 BKN042 OVC050 05/01 A3045 RMK AO2 RAE1858
                 P0000 T00500006 $ =
2018-12-13 13:53 METAR KFOK 131853Z 12009KT 10SM -RA BKN021 BKN027 OVC033 04/01 A3044 RMK AO2
                 RAB20 SLP310 P0000 T00440006 $ =
2018-12-13 12:53 METAR KFOK 131753Z 10005KT 10SM BKN023 OVC046 04/M01 A3044 RMK AO2 RAB1659E14
                 SLP308 P0000 60000 T00441006 10044 21006 58007 $ =

Support USWX by starting your Amazon purchase here.